Time;durP1;ratioP1;P1;durP2;ratioP2;P2;SDS_P1;SDS_P2;PMS_P1;PMS_P2;Temp;Humidity;BMP_temperature;BMP_pressure;BME280_temperature;BME280_humidity;BME280_pressure;Samples;Min_cycle;Max_cycle;Signal;HPM_P1;HPM_P2
2022/10/19 00:00:00;;;;;;;;;;;;;;;;;;5007147;28;20012;-57
2022/10/19 00:02:26;;;;;;;;;;;;;;;;;;5007583;28;19925;-57
2022/10/19 00:04:52;;;;;;;;;;;;;;;;;;5007773;28;19925;-58
2022/10/19 00:07:18;;;;;;;;;;;;;;;;;;5007458;28;19928;-58
2022/10/19 00:09:44;;;;;;;;;;;;;;;;;;5007189;28;19921;-57
2022/10/19 00:12:11;;;;;;;;;;;;;;;;;;5006214;28;19921;-57
2022/10/19 00:14:37;;;;;;;;;;;;;;;;;;5003695;28;19957;-57
2022/10/19 00:17:03;;;;;;;;;;;;;;;;;;5006647;28;20340;-58
2022/10/19 00:19:29;;;;;;;;;;;;;;;;;;5007490;28;19928;-58
2022/10/19 00:21:55;;;;;;;;;;;;;;;;;;5007592;28;19944;-58
2022/10/19 00:24:21;;;;;;;;;;;;;;;;;;5006900;28;20370;-58
2022/10/19 00:26:47;;;;;;;;;;;;;;;;;;5006840;28;19925;-57
2022/10/19 00:29:13;;;;;;;;;;;;;;;;;;5006928;28;19928;-58
2022/10/19 00:31:39;;;;;;;;;;;;;;;;;;5007707;28;19922;-57
2022/10/19 00:34:05;;;;;;;;;;;;;;;;;;5004365;28;20314;-57
2022/10/19 00:36:31;;;;;;;;;;;;;;;;;;5005080;28;19921;-57
2022/10/19 00:38:57;;;;;;;;;;;;;;;;;;5006995;28;19925;-57
2022/10/19 00:41:23;;;;;;;;;;;;;;;;;;5007233;28;19921;-58
2022/10/19 00:43:49;;;;;;;;;;;;;;;;;;5006649;28;19983;-57
2022/10/19 00:46:15;;;;;;;;;;;;;;;;;;5006869;28;20008;-58
2022/10/19 00:48:41;;;;;;;;;;;;;;;;;;5006083;28;19925;-56
2022/10/19 00:51:07;;;;;;;;;;;;;;;;;;5006509;28;19924;-57
2022/10/19 00:53:33;;;;;;;;;;;;;;;;;;5006727;28;19925;-57
2022/10/19 00:55:59;;;;;;;;;;;;;;;;;;5006626;28;19928;-58
2022/10/19 00:58:24;;;;;;;;;;;;;;;;;;5006594;28;20462;-56
2022/10/19 01:00:50;;;;;;;;;;;;;;;;;;5004463;28;19996;-58
2022/10/19 01:03:16;;;;;;;;;;;;;;;;;;5005371;28;20461;-57
2022/10/19 01:05:42;;;;;;;;;;;;;;;;;;5006450;28;19922;-57
2022/10/19 01:08:08;;;;;;;;;;;;;;;;;;5006154;28;20394;-57
2022/10/19 01:10:34;;;;;;;;;;;;;;;;;;5006247;28;19991;-58
2022/10/19 01:13:00;;;;;;;;;;;;;;;;;;5006396;28;19925;-57
2022/10/19 01:15:26;;;;;;;;;;;;;;;;;;5006733;28;19964;-58
2022/10/19 01:17:52;;;;;;;;;;;;;;;;;;5006143;28;20325;-57
2022/10/19 01:20:18;;;;;;;;;;;;;;;;;;5006561;28;20008;-58
2022/10/19 01:22:44;;;;;;;;;;;;;;;;;;5005507;28;19929;-58
2022/10/19 01:25:10;;;;;;;;;;;;;;;;;;5006233;28;19921;-58
2022/10/19 01:27:36;;;;;;;;;;;;;;;;;;5006454;28;20008;-58
2022/10/19 01:30:02;;;;;;;;;;;;;;;;;;5006665;28;19921;-58
2022/10/19 01:32:28;;;;;;;;;;;;;;;;;;5005830;28;19921;-58
2022/10/19 01:34:54;;;;;;;;;;;;;;;;;;5005091;28;19943;-57
2022/10/19 01:37:20;;;;;;;;;;;;;;;;;;5008451;28;19922;-58
2022/10/19 01:39:46;;;;;;;;;;;;;;;;;;5010552;28;20056;-57
2022/10/19 01:42:12;;;;;;;;;;;;;;;;;;5009705;28;19925;-58
2022/10/19 01:44:38;;;;;;;;;;;;;;;;;;5010355;28;19922;-58
2022/10/19 01:47:04;;;;;;;;;;;;;;;;;;5009332;28;20016;-59
2022/10/19 01:49:30;;;;;;;;;;;;;;;;;;5009883;28;19921;-58
2022/10/19 01:51:56;;;;;;;;;;;;;;;;;;5010548;28;20413;-58
2022/10/19 01:54:22;;;;;;;;;;;;;;;;;;5006134;28;19921;-57
2022/10/19 01:56:48;;;;;;;;;;;;;;;;;;5009015;28;19967;-58
2022/10/19 01:59:14;;;;;;;;;;;;;;;;;;5009437;28;19921;-58
2022/10/19 02:01:40;;;;;;;;;;;;;;;;;;5008778;28;19921;-58
2022/10/19 02:04:06;;;;;;;;;;;;;;;;;;5009762;28;19964;-59
2022/10/19 02:06:32;;;;;;;;;;;;;;;;;;5009760;28;19928;-58
2022/10/19 02:08:58;;;;;;;;;;;;;;;;;;5009440;28;19944;-58
2022/10/19 02:11:24;;;;;;;;;;;;;;;;;;5010170;28;19917;-58
2022/10/19 02:13:50;;;;;;;;;;;;;;;;;;5009862;28;19922;-58
2022/10/19 02:16:16;;;;;;;;;;;;;;;;;;5009770;28;20478;-58
2022/10/19 02:18:42;;;;;;;;;;;;;;;;;;5008161;28;20003;-58
2022/10/19 02:21:08;;;;;;;;;;;;;;;;;;5008649;28;19922;-56
2022/10/19 02:23:34;;;;;;;;;;;;;;;;;;5009351;28;19922;-58
2022/10/19 02:26:00;;;;;;;;;;;;;;;;;;5009516;28;20431;-58
2022/10/19 02:28:26;;;;;;;;;;;;;;;;;;5009080;28;19944;-58
2022/10/19 02:30:52;;;;;;;;;;;;;;;;;;5009471;28;19928;-58
2022/10/19 02:33:18;;;;;;;;;;;;;;;;;;5008511;28;19921;-58
2022/10/19 02:35:44;;;;;;;;;;;;;;;;;;5009251;28;19921;-58
2022/10/19 02:38:10;;;;;;;;;;;;;;;;;;5008863;28;19929;-58
2022/10/19 02:40:36;;;;;;;;;;;;;;;;;;5008995;28;19925;-58
2022/10/19 02:43:02;;;;;;;;;;;;;;;;;;5003522;28;20283;-58
2022/10/19 02:45:28;;;;;;;;;;;;;;;;;;5009043;28;19996;-58
2022/10/19 02:47:54;;;;;;;;;;;;;;;;;;5008461;28;20398;-58
2022/10/19 02:50:20;;;;;;;;;;;;;;;;;;5008685;28;19926;-57
2022/10/19 02:52:46;;;;;;;;;;;;;;;;;;5008735;28;20028;-57
2022/10/19 02:55:12;;;;;;;;;;;;;;;;;;5008873;28;19948;-58
2022/10/19 02:57:38;;;;;;;;;;;;;;;;;;5008892;28;19921;-58
2022/10/19 03:00:04;;;;;;;;;;;;;;;;;;5008126;28;19922;-56
2022/10/19 03:02:30;;;;;;;;;;;;;;;;;;5007631;28;19976;-57
2022/10/19 03:04:56;;;;;;;;;;;;;;;;;;5009229;28;19925;-58
2022/10/19 03:07:22;;;;;;;;;;;;;;;;;;5009108;28;19921;-58
2022/10/19 03:09:48;;;;;;;;;;;;;;;;;;5008833;28;20263;-58
2022/10/19 03:12:14;;;;;;;;;;;;;;;;;;5008495;28;19921;-58
2022/10/19 03:14:40;;;;;;;;;;;;;;;;;;5008732;28;20442;-58
2022/10/19 03:17:06;;;;;;;;;;;;;;;;;;5007571;28;19929;-57
2022/10/19 03:19:32;;;;;;;;;;;;;;;;;;5008464;28;19983;-58
2022/10/19 03:21:58;;;;;;;;;;;;;;;;;;5008048;28;19928;-58
2022/10/19 03:24:24;;;;;;;;;;;;;;;;;;5009085;28;20286;-58
2022/10/19 03:26:50;;;;;;;;;;;;;;;;;;5008307;28;20430;-58
2022/10/19 03:29:16;;;;;;;;;;;;;;;;;;5007970;28;19964;-58
2022/10/19 03:31:42;;;;;;;;;;;;;;;;;;5007696;28;19968;-57
2022/10/19 03:34:08;;;;;;;;;;;;;;;;;;5006638;28;19944;-58
2022/10/19 03:36:34;;;;;;;;;;;;;;;;;;5008325;28;19928;-58
2022/10/19 03:39:00;;;;;;;;;;;;;;;;;;5007480;28;19945;-58
2022/10/19 03:41:26;;;;;;;;;;;;;;;;;;5008620;28;19975;-58
2022/10/19 03:43:51;;;;;;;;;;;;;;;;;;5006420;28;20298;-58
2022/10/19 03:46:17;;;;;;;;;;;;;;;;;;5007247;28;19929;-58
2022/10/19 03:48:43;;;;;;;;;;;;;;;;;;5007899;28;20261;-57
2022/10/19 03:51:09;;;;;;;;;;;;;;;;;;5007260;28;19928;-58
2022/10/19 03:53:35;;;;;;;;;;;;;;;;;;5007719;28;19921;-57
2022/10/19 03:56:01;;;;;;;;;;;;;;;;;;5007116;28;20014;-58
2022/10/19 03:58:27;;;;;;;;;;;;;;;;;;5007587;28;19925;-58
2022/10/19 04:00:53;;;;;;;;;;;;;;;;;;5007449;28;19922;-58
2022/10/19 04:03:19;;;;;;;;;;;;;;;;;;5006987;28;20346;-58
2022/10/19 04:05:45;;;;;;;;;;;;;;;;;;5007613;28;20355;-57
2022/10/19 04:08:11;;;;;;;;;;;;;;;;;;5006107;28;19921;-58
2022/10/19 04:10:37;;;;;;;;;;;;;;;;;;5007718;28;19936;-58
2022/10/19 04:13:03;;;;;;;;;;;;;;;;;;5002983;28;19935;-58
2022/10/19 04:15:29;;;;;;;;;;;;;;;;;;5007105;28;19928;-58
2022/10/19 04:17:55;;;;;;;;;;;;;;;;;;5006970;28;20027;-58
2022/10/19 04:20:21;;;;;;;;;;;;;;;;;;5007173;28;19993;-57
2022/10/19 04:22:47;;;;;;;;;;;;;;;;;;5007654;28;20043;-58
2022/10/19 04:25:13;;;;;;;;;;;;;;;;;;5007213;28;19921;-58
2022/10/19 04:27:39;;;;;;;;;;;;;;;;;;5003739;28;19925;-58
2022/10/19 04:30:05;;;;;;;;;;;;;;;;;;5007029;28;19928;-57
2022/10/19 04:32:31;;;;;;;;;;;;;;;;;;5006312;28;19928;-58
2022/10/19 04:34:57;;;;;;;;;;;;;;;;;;5006397;28;19921;-57
2022/10/19 04:37:23;;;;;;;;;;;;;;;;;;5007337;28;19929;-58
2022/10/19 04:39:49;;;;;;;;;;;;;;;;;;5007122;28;19956;-57
2022/10/19 04:42:15;;;;;;;;;;;;;;;;;;5006835;28;20005;-57
2022/10/19 04:44:41;;;;;;;;;;;;;;;;;;5007294;28;20052;-58
2022/10/19 04:47:07;;;;;;;;;;;;;;;;;;5005900;28;19922;-58
2022/10/19 04:49:33;;;;;;;;;;;;;;;;;;5006501;28;19926;-58
2022/10/19 04:51:59;;;;;;;;;;;;;;;;;;5007059;28;20001;-57
2022/10/19 04:54:25;;;;;;;;;;;;;;;;;;5006874;28;19921;-58
2022/10/19 04:56:52;;;;;;;;;;;;;;;;;;5006860;28;19921;-57
2022/10/19 04:59:18;;;;;;;;;;;;;;;;;;5006537;28;19928;-56
2022/10/19 05:01:44;;;;;;;;;;;;;;;;;;5006347;28;19921;-58
2022/10/19 05:04:10;;;;;;;;;;;;;;;;;;5006273;28;20043;-58
2022/10/19 05:06:36;;;;;;;;;;;;;;;;;;5006913;28;19925;-58
2022/10/19 05:09:02;;;;;;;;;;;;;;;;;;5006747;28;19921;-57
2022/10/19 05:11:28;;;;;;;;;;;;;;;;;;5005616;28;20341;-58
2022/10/19 05:13:54;;;;;;;;;;;;;;;;;;5006283;28;19921;-57
2022/10/19 05:16:20;;;;;;;;;;;;;;;;;;5005594;28;20798;-58
2022/10/19 05:18:46;;;;;;;;;;;;;;;;;;5006483;28;19921;-58
2022/10/19 05:21:12;;;;;;;;;;;;;;;;;;5006428;28;19928;-58
2022/10/19 05:23:38;;;;;;;;;;;;;;;;;;5006684;28;19922;-57
2022/10/19 05:26:04;;;;;;;;;;;;;;;;;;5006452;28;20260;-59
2022/10/19 05:28:30;;;;;;;;;;;;;;;;;;5006271;28;19921;-58
2022/10/19 05:30:56;;;;;;;;;;;;;;;;;;5006841;28;19925;-58
2022/10/19 05:33:22;;;;;;;;;;;;;;;;;;5005546;28;19968;-58
2022/10/19 05:35:48;;;;;;;;;;;;;;;;;;5006542;28;19933;-58
2022/10/19 05:38:14;;;;;;;;;;;;;;;;;;5006362;28;19939;-57
2022/10/19 05:40:40;;;;;;;;;;;;;;;;;;5006011;28;19935;-58
2022/10/19 05:43:06;;;;;;;;;;;;;;;;;;5006282;28;19926;-58
2022/10/19 05:45:32;;;;;;;;;;;;;;;;;;5006060;28;19945;-57
2022/10/19 05:47:58;;;;;;;;;;;;;;;;;;5005260;28;19921;-57
2022/10/19 05:50:24;;;;;;;;;;;;;;;;;;5006526;28;19922;-56
2022/10/19 05:52:50;;;;;;;;;;;;;;;;;;5005463;28;20051;-57
2022/10/19 05:55:16;;;;;;;;;;;;;;;;;;5000371;28;19926;-58
2022/10/19 05:57:42;;;;;;;;;;;;;;;;;;4994773;28;19917;-58
2022/10/19 06:00:08;;;;;;;;;;;;;;;;;;4989799;28;20355;-58
2022/10/19 06:02:34;;;;;;;;;;;;;;;;;;4992096;28;19925;-58
2022/10/19 06:05:00;;;;;;;;;;;;;;;;;;4986641;28;19925;-58
2022/10/19 06:07:26;;;;;;;;;;;;;;;;;;4990206;28;20350;-57
2022/10/19 06:09:52;;;;;;;;;;;;;;;;;;4993155;28;19921;-57
2022/10/19 06:12:18;;;;;;;;;;;;;;;;;;4993194;28;19921;-57
2022/10/19 06:14:44;;;;;;;;;;;;;;;;;;4993329;28;19991;-58
2022/10/19 06:17:10;;;;;;;;;;;;;;;;;;4986307;28;20407;-56
2022/10/19 06:19:36;;;;;;;;;;;;;;;;;;4989074;28;19932;-56
2022/10/19 06:22:02;;;;;;;;;;;;;;;;;;4989064;28;19921;-57
2022/10/19 06:24:29;;;;;;;;;;;;;;;;;;4993468;28;19926;-57
2022/10/19 06:26:55;;;;;;;;;;;;;;;;;;4996877;28;19922;-58
2022/10/19 06:29:21;;;;;;;;;;;;;;;;;;4993411;28;19922;-58
2022/10/19 06:31:47;;;;;;;;;;;;;;;;;;4995819;28;20505;-58
2022/10/19 06:34:13;;;;;;;;;;;;;;;;;;4994544;28;20007;-57
2022/10/19 06:36:39;;;;;;;;;;;;;;;;;;4993507;28;20008;-58
2022/10/19 06:39:05;;;;;;;;;;;;;;;;;;4993199;28;19976;-56
2022/10/19 06:41:31;;;;;;;;;;;;;;;;;;4997127;28;19926;-57
2022/10/19 06:43:57;;;;;;;;;;;;;;;;;;4998546;28;20359;-58
2022/10/19 06:46:23;;;;;;;;;;;;;;;;;;4989417;28;19969;-57
2022/10/19 06:48:49;;;;;;;;;;;;;;;;;;4995325;28;19926;-57
2022/10/19 06:51:15;;;;;;;;;;;;;;;;;;4995152;28;19988;-58
2022/10/19 06:53:41;;;;;;;;;;;;;;;;;;4993184;28;19929;-57
2022/10/19 06:56:07;;;;;;;;;;;;;;;;;;4999269;28;19922;-57
2022/10/19 06:58:33;;;;;;;;;;;;;;;;;;5009246;28;20635;-57
2022/10/19 07:00:59;;;;;;;;;;;;;;;;;;5008491;28;19975;-54
2022/10/19 07:03:25;;;;;;;;;;;;;;;;;;5009442;28;21760;-57
2022/10/19 07:05:51;;;;;;;;;;;;;;;;;;5007116;28;20410;-58
2022/10/19 07:08:17;;;;;;;;;;;;;;;;;;5008151;28;19936;-57
2022/10/19 07:10:43;;;;;;;;;;;;;;;;;;5007494;28;19925;-57
2022/10/19 07:13:09;;;;;;;;;;;;;;;;;;5005189;28;20008;-58
2022/10/19 07:15:35;;;;;;;;;;;;;;;;;;5009022;28;20353;-56
2022/10/19 07:18:01;;;;;;;;;;;;;;;;;;5006656;28;19921;-57
2022/10/19 07:20:27;;;;;;;;;;;;;;;;;;5009076;28;20287;-55
2022/10/19 07:22:53;;;;;;;;;;;;;;;;;;5008854;28;19922;-57
2022/10/19 07:25:19;;;;;;;;;;;;;;;;;;5006771;28;20314;-57
2022/10/19 07:27:45;;;;;;;;;;;;;;;;;;5009099;28;19921;-56
2022/10/19 07:30:11;;;;;;;;;;;;;;;;;;5009368;28;19918;-57
2022/10/19 07:32:37;;;;;;;;;;;;;;;;;;5007678;28;19925;-57
2022/10/19 07:35:03;;;;;;;;;;;;;;;;;;5007290;28;20004;-57
2022/10/19 07:37:29;;;;;;;;;;;;;;;;;;5007804;28;19917;-55
2022/10/19 07:39:55;;;;;;;;;;;;;;;;;;5009532;28;20126;-57
2022/10/19 07:42:21;;;;;;;;;;;;;;;;;;5008887;28;19923;-57
2022/10/19 07:44:47;;;;;;;;;;;;;;;;;;5009274;28;20008;-58
2022/10/19 07:47:13;;;;;;;;;;;;;;;;;;5007853;28;19921;-57
2022/10/19 07:49:39;;;;;;;;;;;;;;;;;;5007985;28;19917;-57
2022/10/19 07:52:05;;;;;;;;;;;;;;;;;;5008207;28;19957;-57
2022/10/19 07:54:31;;;;;;;;;;;;;;;;;;5008086;28;19975;-57
2022/10/19 07:56:57;;;;;;;;;;;;;;;;;;5008397;28;20375;-57
2022/10/19 07:59:23;;;;;;;;;;;;;;;;;;5008985;28;19983;-57
2022/10/19 08:01:49;;;;;;;;;;;;;;;;;;5007641;28;19968;-57
2022/10/19 08:04:15;;;;;;;;;;;;;;;;;;5008173;28;19925;-57
2022/10/19 08:06:41;;;;;;;;;;;;;;;;;;5008534;28;20299;-57
2022/10/19 08:09:07;;;;;;;;;;;;;;;;;;5008149;28;19925;-56
2022/10/19 08:11:33;;;;;;;;;;;;;;;;;;5008560;28;19921;-58
2022/10/19 08:14:01;;;;;;;;;;;;;;;;;;5007661;28;19922;-57
2022/10/19 08:16:27;;;;;;;;;;;;;;;;;;5007098;28;19921;-59
2022/10/19 08:18:53;;;;;;;;;;;;;;;;;;5008739;28;19967;-58
2022/10/19 08:21:19;;;;;;;;;;;;;;;;;;5006234;28;20521;-57
2022/10/19 08:23:45;;;;;;;;;;;;;;;;;;5007123;28;20335;-57
2022/10/19 08:26:11;;;;;;;;;;;;;;;;;;5007995;28;20422;-57
2022/10/19 08:28:37;;;;;;;;;;;;;;;;;;5007808;28;19928;-57
2022/10/19 08:31:03;;;;;;;;;;;;;;;;;;5007154;28;20482;-57
2022/10/19 08:33:29;;;;;;;;;;;;;;;;;;5007949;28;19929;-57
2022/10/19 08:35:55;;;;;;;;;;;;;;;;;;5008054;28;19922;-57
2022/10/19 08:38:21;;;;;;;;;;;;;;;;;;5007783;28;19960;-57
2022/10/19 08:40:47;;;;;;;;;;;;;;;;;;5007502;28;19929;-57
2022/10/19 08:43:13;;;;;;;;;;;;;;;;;;5007899;28;20252;-57
2022/10/19 08:45:39;;;;;;;;;;;;;;;;;;5006585;28;19943;-58
2022/10/19 08:48:05;;;;;;;;;;;;;;;;;;5007051;28;19921;-57
2022/10/19 08:50:31;;;;;;;;;;;;;;;;;;5007536;28;20371;-58
2022/10/19 08:52:57;;;;;;;;;;;;;;;;;;5006775;28;19932;-57
2022/10/19 08:55:23;;;;;;;;;;;;;;;;;;5007959;28;20522;-57
2022/10/19 08:57:49;;;;;;;;;;;;;;;;;;5007229;28;19929;-57
2022/10/19 09:00:15;;;;;;;;;;;;;;;;;;5007875;28;19937;-56
2022/10/19 09:02:41;;;;;;;;;;;;;;;;;;5006826;28;19921;-57
2022/10/19 09:05:07;;;;;;;;;;;;;;;;;;5007085;28;20337;-57
2022/10/19 09:07:34;;;;;;;;;;;;;;;;;;5007680;28;19921;-57
2022/10/19 09:10:00;;;;;;;;;;;;;;;;;;5006627;28;19921;-57
2022/10/19 09:12:26;;;;;;;;;;;;;;;;;;5008058;28;19947;-57
2022/10/19 09:14:52;;;;;;;;;;;;;;;;;;5007446;28;20435;-57
2022/10/19 09:17:18;;;;;;;;;;;;;;;;;;5005912;28;19979;-57
2022/10/19 09:19:44;;;;;;;;;;;;;;;;;;5007320;28;20000;-57
2022/10/19 09:22:10;;;;;;;;;;;;;;;;;;5006806;28;19975;-56
2022/10/19 09:24:36;;;;;;;;;;;;;;;;;;5007477;28;19921;-57
2022/10/19 09:27:02;;;;;;;;;;;;;;;;;;5005453;28;20379;-58
2022/10/19 09:29:28;;;;;;;;;;;;;;;;;;5007283;28;19959;-59
2022/10/19 09:31:54;;;;;;;;;;;;;;;;;;5006409;28;19921;-57
2022/10/19 09:34:20;;;;;;;;;;;;;;;;;;5007031;28;20555;-58
2022/10/19 09:36:46;;;;;;;;;;;;;;;;;;5007239;28;19921;-57
2022/10/19 09:39:12;;;;;;;;;;;;;;;;;;5006582;28;19968;-57
2022/10/19 09:41:38;;;;;;;;;;;;;;;;;;5006987;28;19926;-57
2022/10/19 09:44:04;;;;;;;;;;;;;;;;;;5006669;28;20338;-57
2022/10/19 09:46:30;;;;;;;;;;;;;;;;;;5006612;28;19924;-56
2022/10/19 09:48:56;;;;;;;;;;;;;;;;;;5007410;28;19929;-57
2022/10/19 09:51:22;;;;;;;;;;;;;;;;;;5007223;28;20052;-58
2022/10/19 09:53:48;;;;;;;;;;;;;;;;;;5005796;28;19996;-57
2022/10/19 09:56:14;;;;;;;;;;;;;;;;;;5006335;28;20016;-57
2022/10/19 09:58:40;;;;;;;;;;;;;;;;;;5010070;28;20574;-57
2022/10/19 10:01:06;;;;;;;;;;;;;;;;;;5010240;28;19922;-57
2022/10/19 10:03:34;;;;;;;;;;;;;;;;;;5010652;28;19967;-57
2022/10/19 10:06:00;;;;;;;;;;;;;;;;;;5010263;28;19921;-56
2022/10/19 10:08:26;;;;;;;;;;;;;;;;;;5011001;28;19928;-57
2022/10/19 10:10:51;;;;;;;;;;;;;;;;;;5011059;28;19979;-57
2022/10/19 10:13:18;;;;;;;;;;;;;;;;;;5010013;28;19928;-57
2022/10/19 10:15:44;;;;;;;;;;;;;;;;;;5009675;28;20015;-57
2022/10/19 10:18:09;;;;;;;;;;;;;;;;;;5008310;28;19964;-58
2022/10/19 10:20:35;;;;;;;;;;;;;;;;;;5010506;28;19921;-57
2022/10/19 10:23:02;;;;;;;;;;;;;;;;;;5010143;28;20000;-57
2022/10/19 10:25:28;;;;;;;;;;;;;;;;;;5010210;28;20503;-59
2022/10/19 10:27:54;;;;;;;;;;;;;;;;;;5010446;28;20359;-57
2022/10/19 10:30:20;;;;;;;;;;;;;;;;;;5008463;28;19924;-57
2022/10/19 10:32:46;;;;;;;;;;;;;;;;;;5010477;28;19922;-57
2022/10/19 10:35:12;;;;;;;;;;;;;;;;;;5009973;28;19922;-57
2022/10/19 10:37:38;;;;;;;;;;;;;;;;;;5010627;28;20362;-57
2022/10/19 10:40:04;;;;;;;;;;;;;;;;;;5010220;28;19948;-56
2022/10/19 10:42:30;;;;;;;;;;;;;;;;;;5009945;28;19921;-58
2022/10/19 10:44:56;;;;;;;;;;;;;;;;;;5010376;28;20004;-57
2022/10/19 10:47:22;;;;;;;;;;;;;;;;;;5008157;28;20097;-57
2022/10/19 10:49:48;;;;;;;;;;;;;;;;;;5009811;28;19932;-56
2022/10/19 10:52:14;;;;;;;;;;;;;;;;;;5009039;28;19928;-58
2022/10/19 10:54:40;;;;;;;;;;;;;;;;;;5008104;28;19940;-57
2022/10/19 10:57:08;;;;;;;;;;;;;;;;;;5009784;28;20016;-57
2022/10/19 10:59:34;;;;;;;;;;;;;;;;;;5009836;28;20004;-57
2022/10/19 11:02:00;;;;;;;;;;;;;;;;;;5009137;28;20311;-57
2022/10/19 11:04:26;;;;;;;;;;;;;;;;;;5009693;28;20016;-57
2022/10/19 11:06:52;;;;;;;;;;;;;;;;;;5010165;28;20367;-57
2022/10/19 11:09:18;;;;;;;;;;;;;;;;;;5009252;28;19932;-58
2022/10/19 11:11:44;;;;;;;;;;;;;;;;;;5009578;28;19917;-57
2022/10/19 11:14:09;;;;;;;;;;;;;;;;;;5008674;28;20363;-58
2022/10/19 11:16:35;;;;;;;;;;;;;;;;;;5008716;28;19921;-57
2022/10/19 11:19:01;;;;;;;;;;;;;;;;;;5009012;28;20378;-56
2022/10/19 11:21:27;;;;;;;;;;;;;;;;;;5009596;28;19922;-57
2022/10/19 11:23:53;;;;;;;;;;;;;;;;;;5009410;28;19929;-57
2022/10/19 11:26:19;;;;;;;;;;;;;;;;;;5008245;28;19921;-57
2022/10/19 11:28:45;;;;;;;;;;;;;;;;;;5009558;28;19921;-57
2022/10/19 11:31:11;;;;;;;;;;;;;;;;;;5007896;28;20016;-57
2022/10/19 11:33:37;;;;;;;;;;;;;;;;;;5008966;28;20371;-57
2022/10/19 11:36:03;;;;;;;;;;;;;;;;;;5007471;28;19922;-58
2022/10/19 11:38:29;;;;;;;;;;;;;;;;;;5007711;28;19921;-57
2022/10/19 11:40:55;;;;;;;;;;;;;;;;;;5009362;28;20380;-57
2022/10/19 11:43:21;;;;;;;;;;;;;;;;;;5008979;28;19976;-58
2022/10/19 11:45:47;;;;;;;;;;;;;;;;;;5008064;28;19983;-57
2022/10/19 11:48:13;;;;;;;;;;;;;;;;;;5008803;28;20387;-57
2022/10/19 11:50:40;;;;;;;;;;;;;;;;;;5008068;28;20389;-57
2022/10/19 11:53:06;;;;;;;;;;;;;;;;;;5008280;28;19921;-57
2022/10/19 11:55:32;;;;;;;;;;;;;;;;;;5024010;28;20002;-57
2022/10/19 11:57:58;;;;;;;;;;;;;;;;;;5008130;28;19972;-56
2022/10/19 12:00:24;;;;;;;;;;;;;;;;;;5008060;28;19968;-57
2022/10/19 12:02:50;;;;;;;;;;;;;;;;;;5008307;28;20271;-57
2022/10/19 12:05:16;;;;;;;;;;;;;;;;;;5008589;28;19968;-56
2022/10/19 12:07:42;;;;;;;;;;;;;;;;;;5007039;28;20342;-58
2022/10/19 12:10:08;;;;;;;;;;;;;;;;;;5008529;28;19933;-57
2022/10/19 12:12:34;;;;;;;;;;;;;;;;;;5008234;28;19937;-57
2022/10/19 12:15:00;;;;;;;;;;;;;;;;;;5007096;28;20008;-57
2022/10/19 12:17:26;;;;;;;;;;;;;;;;;;5008646;28;19921;-57
2022/10/19 12:19:52;;;;;;;;;;;;;;;;;;5007813;28;20349;-57
2022/10/19 12:22:18;;;;;;;;;;;;;;;;;;5008338;28;19933;-56
2022/10/19 12:24:44;;;;;;;;;;;;;;;;;;5007999;28;20731;-57
2022/10/19 12:27:10;;;;;;;;;;;;;;;;;;5007897;28;19922;-58
2022/10/19 12:29:36;;;;;;;;;;;;;;;;;;5006774;28;20330;-58
2022/10/19 12:32:02;;;;;;;;;;;;;;;;;;5007185;28;19929;-57
2022/10/19 12:34:28;;;;;;;;;;;;;;;;;;5007372;28;19928;-57
2022/10/19 12:36:54;;;;;;;;;;;;;;;;;;5008237;28;20555;-57
2022/10/19 12:39:20;;;;;;;;;;;;;;;;;;5022934;28;20003;-57
2022/10/19 12:41:50;;;;;;;;;;;;;;;;;;5007737;28;19928;-56
2022/10/19 12:44:16;;;;;;;;;;;;;;;;;;5007430;28;20533;-57
2022/10/19 12:46:42;;;;;;;;;;;;;;;;;;5006576;28;19922;-58
2022/10/19 12:49:08;;;;;;;;;;;;;;;;;;5007766;28;20457;-58
2022/10/19 12:51:34;;;;;;;;;;;;;;;;;;5007368;28;19925;-56
2022/10/19 12:54:01;;;;;;;;;;;;;;;;;;5006878;28;20394;-57
2022/10/19 12:56:27;;;;;;;;;;;;;;;;;;5006563;28;19921;-57
2022/10/19 12:58:53;;;;;;;;;;;;;;;;;;5007569;28;19932;-58
2022/10/19 13:01:19;;;;;;;;;;;;;;;;;;5006513;28;19926;-57
2022/10/19 13:03:46;;;;;;;;;;;;;;;;;;5007413;28;20376;-56
2022/10/19 13:06:12;;;;;;;;;;;;;;;;;;5007204;28;19921;-57
2022/10/19 13:08:38;;;;;;;;;;;;;;;;;;5007018;28;19932;-57
2022/10/19 13:11:04;;;;;;;;;;;;;;;;;;5007285;28;19921;-58
2022/10/19 13:13:30;;;;;;;;;;;;;;;;;;5007545;28;20415;-57
2022/10/19 13:15:56;;;;;;;;;;;;;;;;;;5006857;28;19921;-58
2022/10/19 13:18:22;;;;;;;;;;;;;;;;;;5007379;28;20013;-57
2022/10/19 13:20:48;;;;;;;;;;;;;;;;;;5006899;28;20406;-57
2022/10/19 13:23:14;;;;;;;;;;;;;;;;;;5007111;28;19929;-58
2022/10/19 13:25:40;;;;;;;;;;;;;;;;;;5007238;28;19922;-57
2022/10/19 13:28:06;;;;;;;;;;;;;;;;;;5007189;28;19953;-57
2022/10/19 13:30:32;;;;;;;;;;;;;;;;;;5006289;28;19921;-57
2022/10/19 13:32:58;;;;;;;;;;;;;;;;;;5005913;28;19931;-57
2022/10/19 13:35:24;;;;;;;;;;;;;;;;;;5007008;28;20275;-57
2022/10/19 13:37:50;;;;;;;;;;;;;;;;;;5007209;28;19922;-57
2022/10/19 13:40:16;;;;;;;;;;;;;;;;;;5005427;28;19928;-58
2022/10/19 13:42:42;;;;;;;;;;;;;;;;;;5007350;28;19928;-57
2022/10/19 13:45:08;;;;;;;;;;;;;;;;;;5006278;28;20399;-57
2022/10/19 13:47:34;;;;;;;;;;;;;;;;;;5007282;28;20009;-57
2022/10/19 13:50:00;;;;;;;;;;;;;;;;;;5006517;28;19964;-57
2022/10/19 13:52:26;;;;;;;;;;;;;;;;;;5007300;28;19960;-57
2022/10/19 13:54:52;;;;;;;;;;;;;;;;;;5007010;28;20267;-57
2022/10/19 13:57:18;;;;;;;;;;;;;;;;;;5006940;28;20261;-57
2022/10/19 13:59:44;;;;;;;;;;;;;;;;;;5006495;28;19928;-57
2022/10/19 14:02:11;;;;;;;;;;;;;;;;;;5007321;28;19921;-57
2022/10/19 14:04:37;;;;;;;;;;;;;;;;;;5006757;28;19928;-57
2022/10/19 14:07:03;;;;;;;;;;;;;;;;;;5006661;28;19952;-57
2022/10/19 14:09:29;;;;;;;;;;;;;;;;;;5007108;28;20478;-56
2022/10/19 14:11:55;;;;;;;;;;;;;;;;;;5007047;28;19921;-57
2022/10/19 14:14:21;;;;;;;;;;;;;;;;;;5006918;28;19995;-58
2022/10/19 14:16:47;;;;;;;;;;;;;;;;;;5020642;28;20437;-56
2022/10/19 14:19:13;;;;;;;;;;;;;;;;;;5006846;28;19921;-57
2022/10/19 14:21:40;;;;;;;;;;;;;;;;;;5007033;28;19921;-58
2022/10/19 14:24:06;;;;;;;;;;;;;;;;;;5006999;28;19965;-57
2022/10/19 14:26:32;;;;;;;;;;;;;;;;;;5006856;28;20003;-57
2022/10/19 14:28:58;;;;;;;;;;;;;;;;;;5006064;28;19996;-58
2022/10/19 14:31:24;;;;;;;;;;;;;;;;;;5005737;28;20397;-58
2022/10/19 14:33:50;;;;;;;;;;;;;;;;;;5005803;28;20685;-57
2022/10/19 14:36:16;;;;;;;;;;;;;;;;;;5004736;28;19922;-57
2022/10/19 14:38:43;;;;;;;;;;;;;;;;;;5005112;28;19922;-58
2022/10/19 14:41:09;;;;;;;;;;;;;;;;;;5005958;28;19964;-58
2022/10/19 14:43:35;;;;;;;;;;;;;;;;;;5007188;28;19964;-57
2022/10/19 14:46:01;;;;;;;;;;;;;;;;;;5008738;28;20019;-58
2022/10/19 14:48:27;;;;;;;;;;;;;;;;;;5009602;28;20028;-58
2022/10/19 14:50:53;;;;;;;;;;;;;;;;;;5009230;28;19936;-57
2022/10/19 14:53:19;;;;;;;;;;;;;;;;;;5009737;28;20275;-58
2022/10/19 14:55:45;;;;;;;;;;;;;;;;;;5009422;28;19957;-57
2022/10/19 14:58:11;;;;;;;;;;;;;;;;;;5009591;28;19969;-58
2022/10/19 15:00:37;;;;;;;;;;;;;;;;;;5009021;28;19917;-58
2022/10/19 15:03:03;;;;;;;;;;;;;;;;;;5009078;28;19922;-58
2022/10/19 15:05:29;;;;;;;;;;;;;;;;;;5009624;28;19964;-58
2022/10/19 15:07:55;;;;;;;;;;;;;;;;;;5010038;28;19921;-58
2022/10/19 15:10:21;;;;;;;;;;;;;;;;;;5009237;28;19972;-57
2022/10/19 15:12:47;;;;;;;;;;;;;;;;;;5008941;28;19961;-57
2022/10/19 15:15:13;;;;;;;;;;;;;;;;;;5007652;28;19944;-58
2022/10/19 15:17:39;;;;;;;;;;;;;;;;;;5006973;28;20487;-57
2022/10/19 15:20:05;;;;;;;;;;;;;;;;;;5007156;28;19925;-57
2022/10/19 15:22:31;;;;;;;;;;;;;;;;;;5007070;28;20430;-57
2022/10/19 15:24:57;;;;;;;;;;;;;;;;;;5006726;28;19968;-59
2022/10/19 15:27:23;;;;;;;;;;;;;;;;;;5006660;28;19980;-58
2022/10/19 15:29:49;;;;;;;;;;;;;;;;;;5006333;28;19925;-58
2022/10/19 15:32:15;;;;;;;;;;;;;;;;;;5006228;28;20466;-57
2022/10/19 15:34:41;;;;;;;;;;;;;;;;;;5005325;28;19961;-58
2022/10/19 15:37:07;;;;;;;;;;;;;;;;;;5004523;28;19953;-58
2022/10/19 15:39:33;;;;;;;;;;;;;;;;;;4994844;28;20379;-57
2022/10/19 15:41:58;;;;;;;;;;;;;;;;;;5008554;28;19975;-57
2022/10/19 15:44:24;;;;;;;;;;;;;;;;;;5008441;28;19921;-58
2022/10/19 15:46:50;;;;;;;;;;;;;;;;;;5008556;28;20013;-58
2022/10/19 15:49:16;;;;;;;;;;;;;;;;;;5007809;28;20409;-58
2022/10/19 15:51:43;;;;;;;;;;;;;;;;;;5008401;28;19921;-57
2022/10/19 15:54:09;;;;;;;;;;;;;;;;;;5007257;28;19952;-56
2022/10/19 15:56:35;;;;;;;;;;;;;;;;;;5006684;28;19944;-57
2022/10/19 15:59:01;;;;;;;;;;;;;;;;;;5007896;28;20542;-57
2022/10/19 16:01:27;;;;;;;;;;;;;;;;;;5007576;28;19921;-58
2022/10/19 16:03:53;;;;;;;;;;;;;;;;;;5008929;28;19921;-58
2022/10/19 16:06:19;;;;;;;;;;;;;;;;;;5008289;28;19925;-57
2022/10/19 16:08:45;;;;;;;;;;;;;;;;;;5008313;28;19930;-57
2022/10/19 16:11:11;;;;;;;;;;;;;;;;;;5008130;28;19976;-57
2022/10/19 16:13:37;;;;;;;;;;;;;;;;;;5007971;28;20390;-57
2022/10/19 16:16:03;;;;;;;;;;;;;;;;;;5007414;28;19928;-57
2022/10/19 16:18:29;;;;;;;;;;;;;;;;;;5008484;28;19925;-58
2022/10/19 16:20:55;;;;;;;;;;;;;;;;;;5008388;28;19924;-57
2022/10/19 16:23:21;;;;;;;;;;;;;;;;;;5007329;28;19944;-58
2022/10/19 16:25:47;;;;;;;;;;;;;;;;;;5008176;28;19921;-57
2022/10/19 16:28:13;;;;;;;;;;;;;;;;;;5007496;28;19967;-58
2022/10/19 16:30:38;;;;;;;;;;;;;;;;;;5007007;28;20391;-56
2022/10/19 16:33:04;;;;;;;;;;;;;;;;;;5006387;28;19931;-57
2022/10/19 16:35:30;;;;;;;;;;;;;;;;;;5007165;28;19948;-57